sensor_id;sensor_type;location;lat;lon;timestamp;pressure;altitude;pressure_sealevel;temperature;humidity
13068;BME280;6600;51.362;6.686;2023-04-05T00:00:51;101981.31;;;4.00;76.67
13068;BME280;6600;51.362;6.686;2023-04-05T00:03:18;101981.31;;;4.00;76.18
13068;BME280;6600;51.362;6.686;2023-04-05T00:05:44;101977.41;;;4.04;76.09
13068;BME280;6600;51.362;6.686;2023-04-05T00:08:10;101977.97;;;4.07;76.08
13068;BME280;6600;51.362;6.686;2023-04-05T00:10:48;101977.13;;;4.07;76.16
13068;BME280;6600;51.362;6.686;2023-04-05T00:13:14;101971.13;;;4.05;75.83
13068;BME280;6600;51.362;6.686;2023-04-05T00:15:39;101976.31;;;4.06;76.04
13068;BME280;6600;51.362;6.686;2023-04-05T00:18:05;101974.66;;;3.96;75.86
13068;BME280;6600;51.362;6.686;2023-04-05T00:20:31;101978.28;;;3.95;75.99
13068;BME280;6600;51.362;6.686;2023-04-05T00:22:58;101972.97;;;3.95;75.61
13068;BME280;6600;51.362;6.686;2023-04-05T00:25:24;101967.94;;;3.92;75.71
13068;BME280;6600;51.362;6.686;2023-04-05T00:27:49;101966.28;;;3.91;75.29
13068;BME280;6600;51.362;6.686;2023-04-05T00:30:16;101971.56;;;3.91;75.40
13068;BME280;6600;51.362;6.686;2023-04-05T00:32:48;101973.53;;;3.89;75.37
13068;BME280;6600;51.362;6.686;2023-04-05T00:35:14;101973.81;;;3.86;75.15
13068;BME280;6600;51.362;6.686;2023-04-05T00:37:39;101969.78;;;3.82;75.57
13068;BME280;6600;51.362;6.686;2023-04-05T00:40:05;101977.72;;;3.82;75.62
13068;BME280;6600;51.362;6.686;2023-04-05T00:42:31;101974.66;;;3.77;75.84
13068;BME280;6600;51.362;6.686;2023-04-05T00:44:56;101977.19;;;3.69;76.60
13068;BME280;6600;51.362;6.686;2023-04-05T00:47:22;101965.59;;;3.70;76.98
13068;BME280;6600;51.362;6.686;2023-04-05T00:49:47;101963.22;;;3.67;77.29
13068;BME280;6600;51.362;6.686;2023-04-05T00:52:14;101963.38;;;3.65;77.63
13068;BME280;6600;51.362;6.686;2023-04-05T00:54:39;101958.50;;;3.61;77.70
13068;BME280;6600;51.362;6.686;2023-04-05T00:57:05;101963.22;;;3.57;78.00
13068;BME280;6600;51.362;6.686;2023-04-05T00:59:32;101951.63;;;3.48;78.62
13068;BME280;6600;51.362;6.686;2023-04-05T01:02:17;101962.97;;;3.50;78.77
13068;BME280;6600;51.362;6.686;2023-04-05T01:04:54;101961.84;;;3.43;79.00
13068;BME280;6600;51.362;6.686;2023-04-05T01:07:30;101954.84;;;3.42;78.87
13068;BME280;6600;51.362;6.686;2023-04-05T01:10:01;101951.81;;;3.37;79.26
13068;BME280;6600;51.362;6.686;2023-04-05T01:12:31;101944.53;;;3.39;79.80
13068;BME280;6600;51.362;6.686;2023-04-05T01:14:58;101945.66;;;3.37;80.21
13068;BME280;6600;51.362;6.686;2023-04-05T01:17:26;101948.44;;;3.35;80.67
13068;BME280;6600;51.362;6.686;2023-04-05T01:20:04;101946.78;;;3.34;80.97
13068;BME280;6600;51.362;6.686;2023-04-05T01:23:04;101946.78;;;3.34;81.16
13068;BME280;6600;51.362;6.686;2023-04-05T01:26:03;101940.09;;;3.30;81.13
13068;BME280;6600;51.362;6.686;2023-04-05T01:31:41;101937.56;;;3.19;81.41
13068;BME280;6600;51.362;6.686;2023-04-05T01:34:14;101944.09;;;3.15;81.11
13068;BME280;6600;51.362;6.686;2023-04-05T01:36:45;101938.13;;;3.13;80.79
13068;BME280;6600;51.362;6.686;2023-04-05T01:39:14;101935.88;;;3.09;80.74
13068;BME280;6600;51.362;6.686;2023-04-05T01:41:41;101937.25;;;3.03;81.11
13068;BME280;6600;51.362;6.686;2023-04-05T01:44:07;101923.59;;;2.98;81.40
13068;BME280;6600;51.362;6.686;2023-04-05T01:46:32;101918.69;;;2.93;81.72
13068;BME280;6600;51.362;6.686;2023-04-05T01:48:57;101919.53;;;2.94;81.88
13068;BME280;6600;51.362;6.686;2023-04-05T01:51:23;101925.38;;;2.88;82.07
13068;BME280;6600;51.362;6.686;2023-04-05T01:53:48;101927.75;;;2.81;82.18
13068;BME280;6600;51.362;6.686;2023-04-05T01:56:13;101921.19;;;2.76;82.32
13068;BME280;6600;51.362;6.686;2023-04-05T01:58:39;101913.47;;;2.63;82.49
13068;BME280;6600;51.362;6.686;2023-04-05T02:01:04;101921.28;;;2.65;83.02
13068;BME280;6600;51.362;6.686;2023-04-05T02:03:30;101917.22;;;2.61;82.88
13068;BME280;6600;51.362;6.686;2023-04-05T02:05:56;101910.72;;;2.65;83.10
13068;BME280;6600;51.362;6.686;2023-04-05T02:08:22;101909.28;;;2.61;83.14
13068;BME280;6600;51.362;6.686;2023-04-05T02:10:47;101909.56;;;2.58;83.51
13068;BME280;6600;51.362;6.686;2023-04-05T02:13:13;101915.13;;;2.54;83.85
13068;BME280;6600;51.362;6.686;2023-04-05T02:15:38;101915.13;;;2.54;84.40
13068;BME280;6600;51.362;6.686;2023-04-05T02:18:04;101918.06;;;2.51;84.51
13068;BME280;6600;51.362;6.686;2023-04-05T02:20:29;101914.69;;;2.49;84.72
13068;BME280;6600;51.362;6.686;2023-04-05T02:22:55;101914.00;;;2.47;85.32
13068;BME280;6600;51.362;6.686;2023-04-05T02:25:21;101914.25;;;2.44;85.57
13068;BME280;6600;51.362;6.686;2023-04-05T02:27:46;101907.28;;;2.43;85.62
13068;BME280;6600;51.362;6.686;2023-04-05T02:30:12;101905.59;;;2.42;85.98
13068;BME280;6600;51.362;6.686;2023-04-05T02:32:41;101905.50;;;2.44;86.39
13068;BME280;6600;51.362;6.686;2023-04-05T02:35:08;101905.88;;;2.39;86.62
13068;BME280;6600;51.362;6.686;2023-04-05T02:37:34;101906.16;;;2.36;86.84
13068;BME280;6600;51.362;6.686;2023-04-05T02:40:00;101910.59;;;2.36;87.29
13068;BME280;6600;51.362;6.686;2023-04-05T02:42:25;101904.72;;;2.32;87.42
13068;BME280;6600;51.362;6.686;2023-04-05T02:44:51;101906.41;;;2.33;87.21
13068;BME280;6600;51.362;6.686;2023-04-05T02:47:17;101908.34;;;2.31;87.20
13068;BME280;6600;51.362;6.686;2023-04-05T02:49:48;101901.41;;;2.30;87.49
13068;BME280;6600;51.362;6.686;2023-04-05T02:52:14;101901.91;;;2.24;87.52
13068;BME280;6600;51.362;6.686;2023-04-05T02:54:40;101900.25;;;2.23;87.63
13068;BME280;6600;51.362;6.686;2023-04-05T02:57:05;101900.53;;;2.20;87.68
13068;BME280;6600;51.362;6.686;2023-04-05T02:59:35;101911.75;;;2.13;87.78
13068;BME280;6600;51.362;6.686;2023-04-05T03:02:00;101903.94;;;2.11;87.83
13068;BME280;6600;51.362;6.686;2023-04-05T03:04:26;101902.28;;;2.10;88.18
13068;BME280;6600;51.362;6.686;2023-04-05T03:06:51;101912.53;;;2.03;88.28
13068;BME280;6600;51.362;6.686;2023-04-05T03:09:19;101908.34;;;2.01;88.08
13068;BME280;6600;51.362;6.686;2023-04-05T03:11:45;101912.94;;;1.99;87.87
13068;BME280;6600;51.362;6.686;2023-04-05T03:14:10;101903.47;;;1.96;88.19
13068;BME280;6600;51.362;6.686;2023-04-05T03:16:36;101905.38;;;1.94;88.35
13068;BME280;6600;51.362;6.686;2023-04-05T03:19:03;101904.81;;;1.91;88.35
13068;BME280;6600;51.362;6.686;2023-04-05T03:21:29;101896.31;;;1.87;88.29
13068;BME280;6600;51.362;6.686;2023-04-05T03:23:54;101895.47;;;1.87;88.96
13068;BME280;6600;51.362;6.686;2023-04-05T03:26:20;101903.66;;;1.84;89.14
13068;BME280;6600;51.362;6.686;2023-04-05T03:28:45;101902.97;;;1.82;89.15
13068;BME280;6600;51.362;6.686;2023-04-05T03:31:12;101902.97;;;1.82;89.03
13068;BME280;6600;51.362;6.686;2023-04-05T03:33:37;101898.91;;;1.78;89.23
13068;BME280;6600;51.362;6.686;2023-04-05T03:36:04;101891.34;;;1.73;89.04
13068;BME280;6600;51.362;6.686;2023-04-05T03:38:29;101894.97;;;1.72;89.19
13068;BME280;6600;51.362;6.686;2023-04-05T03:40:56;101886.47;;;1.69;88.99
13068;BME280;6600;51.362;6.686;2023-04-05T03:43:22;101886.00;;;1.64;89.16
13068;BME280;6600;51.362;6.686;2023-04-05T03:45:47;101889.59;;;1.63;89.07
13068;BME280;6600;51.362;6.686;2023-04-05T03:48:12;101884.31;;;1.63;89.43
13068;BME280;6600;51.362;6.686;2023-04-05T03:50:37;101889.88;;;1.60;89.53
13068;BME280;6600;51.362;6.686;2023-04-05T03:53:03;101893.50;;;1.59;89.92
13068;BME280;6600;51.362;6.686;2023-04-05T03:55:28;101883.06;;;1.57;89.83
13068;BME280;6600;51.362;6.686;2023-04-05T03:57:54;101884.59;;;1.60;90.31
13068;BME280;6600;51.362;6.686;2023-04-05T04:00:19;101887.97;;;1.62;90.20
13068;BME280;6600;51.362;6.686;2023-04-05T04:02:48;101887.97;;;1.62;90.48
13068;BME280;6600;51.362;6.686;2023-04-05T04:05:15;101882.66;;;1.62;90.58
13068;BME280;6600;51.362;6.686;2023-04-05T04:07:41;101887.22;;;1.60;90.57
13068;BME280;6600;51.362;6.686;2023-04-05T04:10:08;101879.56;;;1.57;90.77
13068;BME280;6600;51.362;6.686;2023-04-05T04:12:34;101884.41;;;1.51;90.34
13068;BME280;6600;51.362;6.686;2023-04-05T04:15:00;101887.88;;;1.52;90.47
13068;BME280;6600;51.362;6.686;2023-04-05T04:17:32;101878.13;;;1.52;91.15
13068;BME280;6600;51.362;6.686;2023-04-05T04:19:58;101891.50;;;1.51;91.01
13068;BME280;6600;51.362;6.686;2023-04-05T04:22:24;101880.34;;;1.47;90.96
13068;BME280;6600;51.362;6.686;2023-04-05T04:25:04;101883.25;;;1.44;90.83
13068;BME280;6600;51.362;6.686;2023-04-05T04:27:30;101882.53;;;1.42;90.99
13068;BME280;6600;51.362;6.686;2023-04-05T04:29:56;101880.84;;;1.41;91.48
13068;BME280;6600;51.362;6.686;2023-04-05T04:32:28;101872.22;;;1.39;91.34
13068;BME280;6600;51.362;6.686;2023-04-05T04:35:15;101874.16;;;1.37;91.81
13068;BME280;6600;51.362;6.686;2023-04-05T04:37:46;101883.28;;;1.33;92.30
13068;BME280;6600;51.362;6.686;2023-04-05T04:40:15;101884.97;;;1.34;92.10
13068;BME280;6600;51.362;6.686;2023-04-05T04:42:44;101876.22;;;1.34;92.27
13068;BME280;6600;51.362;6.686;2023-04-05T04:45:13;101881.34;;;1.35;92.34
13068;BME280;6600;51.362;6.686;2023-04-05T04:47:45;101878.00;;;1.33;92.16
13068;BME280;6600;51.362;6.686;2023-04-05T04:50:12;101882.44;;;1.33;92.38
13068;BME280;6600;51.362;6.686;2023-04-05T04:52:38;101886.06;;;1.32;92.63
13068;BME280;6600;51.362;6.686;2023-04-05T04:55:05;101876.59;;;1.29;92.44
13068;BME280;6600;51.362;6.686;2023-04-05T04:57:31;101888.25;;;1.27;92.76
13068;BME280;6600;51.362;6.686;2023-04-05T04:59:56;101882.13;;;1.26;92.92
13068;BME280;6600;51.362;6.686;2023-04-05T05:02:23;101881.28;;;1.26;92.17
13068;BME280;6600;51.362;6.686;2023-04-05T05:04:48;101884.88;;;1.25;92.23
13068;BME280;6600;51.362;6.686;2023-04-05T05:07:13;101887.66;;;1.23;92.31
13068;BME280;6600;51.362;6.686;2023-04-05T05:09:39;101882.38;;;1.23;92.54
13068;BME280;6600;51.362;6.686;2023-04-05T05:12:05;101884.88;;;1.25;92.49
13068;BME280;6600;51.362;6.686;2023-04-05T05:14:31;101882.13;;;1.26;92.82
13068;BME280;6600;51.362;6.686;2023-04-05T05:16:56;101880.19;;;1.28;92.73
13068;BME280;6600;51.362;6.686;2023-04-05T05:19:23;101886.00;;;1.43;92.95
13068;BME280;6600;51.362;6.686;2023-04-05T05:21:49;101882.66;;;1.62;93.86
13068;BME280;6600;51.362;6.686;2023-04-05T05:24:14;101876.38;;;1.83;93.88
13068;BME280;6600;51.362;6.686;2023-04-05T05:26:40;101880.63;;;1.95;93.79
13068;BME280;6600;51.362;6.686;2023-04-05T05:29:05;101876.81;;;2.09;93.76
13068;BME280;6600;51.362;6.686;2023-04-05T05:31:30;101878.38;;;2.21;93.74
13068;BME280;6600;51.362;6.686;2023-04-05T05:33:57;101874.50;;;2.25;93.38
13068;BME280;6600;51.362;6.686;2023-04-05T05:36:23;101872.72;;;2.35;93.50
13068;BME280;6600;51.362;6.686;2023-04-05T05:38:50;101874.44;;;2.46;93.17
13068;BME280;6600;51.362;6.686;2023-04-05T05:41:16;101870.28;;;2.53;93.10
13068;BME280;6600;51.362;6.686;2023-04-05T05:43:42;101876.69;;;2.60;93.13
13068;BME280;6600;51.362;6.686;2023-04-05T05:46:07;101874.78;;;2.72;92.49
13068;BME280;6600;51.362;6.686;2023-04-05T05:48:32;101877.84;;;2.77;92.47
13068;BME280;6600;51.362;6.686;2023-04-05T05:50:58;101873.97;;;2.81;91.99
13068;BME280;6600;51.362;6.686;2023-04-05T05:53:27;101876.22;;;2.85;91.64
13068;BME280;6600;51.362;6.686;2023-04-05T05:55:53;101883.19;;;2.96;91.14
13068;BME280;6600;51.362;6.686;2023-04-05T05:58:18;101885.69;;;2.97;90.71
13068;BME280;6600;51.362;6.686;2023-04-05T06:00:43;101878.03;;;3.04;90.40
13068;BME280;6600;51.362;6.686;2023-04-05T06:03:11;101881.22;;;3.08;90.39
13068;BME280;6600;51.362;6.686;2023-04-05T06:05:37;101886.81;;;3.14;90.28
13068;BME280;6600;51.362;6.686;2023-04-05T06:08:02;101886.94;;;3.22;90.26
13068;BME280;6600;51.362;6.686;2023-04-05T06:10:29;101885.69;;;3.36;89.87
13068;BME280;6600;51.362;6.686;2023-04-05T06:12:54;101889.88;;;3.48;89.80
13068;BME280;6600;51.362;6.686;2023-04-05T06:15:19;101884.28;;;3.61;89.59
13068;BME280;6600;51.362;6.686;2023-04-05T06:17:45;101891.25;;;3.71;89.36
13068;BME280;6600;51.362;6.686;2023-04-05T06:20:10;101892.06;;;3.81;89.32
13068;BME280;6600;51.362;6.686;2023-04-05T06:22:38;101888.13;;;3.95;88.56
13068;BME280;6600;51.362;6.686;2023-04-05T06:25:05;101891.28;;;4.08;88.28
13068;BME280;6600;51.362;6.686;2023-04-05T06:27:31;101888.16;;;4.22;87.86
13068;BME280;6600;51.362;6.686;2023-04-05T06:29:58;101883.06;;;4.38;87.65
13068;BME280;6600;51.362;6.686;2023-04-05T06:32:24;101885.09;;;4.54;87.60
13068;BME280;6600;51.362;6.686;2023-04-05T06:34:49;101887.47;;;4.75;87.10
13068;BME280;6600;51.362;6.686;2023-04-05T06:37:15;101895.41;;;5.02;85.82
13068;BME280;6600;51.362;6.686;2023-04-05T06:39:40;101891.31;;;5.25;83.50
13068;BME280;6600;51.362;6.686;2023-04-05T06:42:05;101891.38;;;5.51;81.90
13068;BME280;6600;51.362;6.686;2023-04-05T06:44:30;101899.16;;;5.70;79.35
13068;BME280;6600;51.362;6.686;2023-04-05T06:46:56;101902.53;;;5.98;79.30
13068;BME280;6600;51.362;6.686;2023-04-05T06:49:21;101910.28;;;6.17;79.11
13068;BME280;6600;51.362;6.686;2023-04-05T06:51:46;101883.59;;;6.35;78.10
13068;BME280;6600;51.362;6.686;2023-04-05T06:54:12;101890.25;;;6.65;77.04
13068;BME280;6600;51.362;6.686;2023-04-05T06:56:37;101894.44;;;6.75;75.27
13068;BME280;6600;51.362;6.686;2023-04-05T06:59:03;101889.63;;;6.79;74.31
13068;BME280;6600;51.362;6.686;2023-04-05T07:01:29;101893.31;;;6.94;72.54
13068;BME280;6600;51.362;6.686;2023-04-05T07:03:54;101885.59;;;6.83;69.39
13068;BME280;6600;51.362;6.686;2023-04-05T07:06:20;101888.78;;;6.78;68.27
13068;BME280;6600;51.362;6.686;2023-04-05T07:08:48;101887.09;;;6.77;67.51
13068;BME280;6600;51.362;6.686;2023-04-05T07:11:13;101890.31;;;6.89;67.41
13068;BME280;6600;51.362;6.686;2023-04-05T07:13:40;101876.31;;;6.87;67.20
13068;BME280;6600;51.362;6.686;2023-04-05T07:16:05;101880.66;;;6.96;67.47
13068;BME280;6600;51.362;6.686;2023-04-05T07:18:31;101882.19;;;7.06;66.43
13068;BME280;6600;51.362;6.686;2023-04-05T07:20:58;101879.69;;;7.05;65.10
13068;BME280;6600;51.362;6.686;2023-04-05T07:23:27;101884.03;;;7.06;64.89
13068;BME280;6600;51.362;6.686;2023-04-05T07:25:53;101878.69;;;7.06;64.61
13068;BME280;6600;51.362;6.686;2023-04-05T07:28:19;101884.31;;;6.95;64.37
13068;BME280;6600;51.362;6.686;2023-04-05T07:30:44;101881.00;;;6.93;64.41
13068;BME280;6600;51.362;6.686;2023-04-05T07:33:09;101878.00;;;6.96;64.50
13068;BME280;6600;51.362;6.686;2023-04-05T07:35:35;101879.63;;;6.81;64.14
13068;BME280;6600;51.362;6.686;2023-04-05T07:38:01;101885.09;;;6.79;65.05
13068;BME280;6600;51.362;6.686;2023-04-05T07:40:26;101877.63;;;6.83;64.56
13068;BME280;6600;51.362;6.686;2023-04-05T07:42:52;101877.31;;;6.94;65.96
13068;BME280;6600;51.362;6.686;2023-04-05T07:45:17;101876.03;;;7.06;65.77
13068;BME280;6600;51.362;6.686;2023-04-05T07:47:42;101879.69;;;7.05;65.22
13068;BME280;6600;51.362;6.686;2023-04-05T07:50:08;101881.34;;;7.06;64.63
13068;BME280;6600;51.362;6.686;2023-04-05T07:52:35;101876.69;;;7.16;64.31
13068;BME280;6600;51.362;6.686;2023-04-05T07:55:01;101882.53;;;7.28;64.87
13068;BME280;6600;51.362;6.686;2023-04-05T07:57:26;101885.72;;;7.23;65.31
13068;BME280;6600;51.362;6.686;2023-04-05T07:59:52;101884.38;;;7.27;65.07
13068;BME280;6600;51.362;6.686;2023-04-05T08:02:18;101882.38;;;7.37;65.08
13068;BME280;6600;51.362;6.686;2023-04-05T08:04:44;101888.38;;;7.39;65.57
13068;BME280;6600;51.362;6.686;2023-04-05T08:07:10;101890.38;;;7.53;65.67
13068;BME280;6600;51.362;6.686;2023-04-05T08:09:36;101886.03;;;7.60;65.81
13068;BME280;6600;51.362;6.686;2023-04-05T08:12:01;101887.50;;;7.79;66.02
13068;BME280;6600;51.362;6.686;2023-04-05T08:14:30;101893.03;;;7.78;65.60
13068;BME280;6600;51.362;6.686;2023-04-05T08:16:55;101884.00;;;7.87;64.88
13068;BME280;6600;51.362;6.686;2023-04-05T08:19:21;101880.50;;;8.02;65.32
13068;BME280;6600;51.362;6.686;2023-04-05T08:21:46;101884.50;;;7.98;64.61
13068;BME280;6600;51.362;6.686;2023-04-05T08:24:11;101878.66;;;7.95;63.92
13068;BME280;6600;51.362;6.686;2023-04-05T08:26:37;101887.31;;;7.97;64.59
13068;BME280;6600;51.362;6.686;2023-04-05T08:29:02;101889.78;;;8.14;64.29
13068;BME280;6600;51.362;6.686;2023-04-05T08:31:27;101884.25;;;8.24;64.89
13068;BME280;6600;51.362;6.686;2023-04-05T08:33:53;101882.91;;;8.36;63.34
13068;BME280;6600;51.362;6.686;2023-04-05T08:36:18;101882.69;;;8.54;63.13
13068;BME280;6600;51.362;6.686;2023-04-05T08:38:44;101891.19;;;8.57;61.39
13068;BME280;6600;51.362;6.686;2023-04-05T08:41:22;101885.84;;;8.57;61.78
13068;BME280;6600;51.362;6.686;2023-04-05T08:44:00;101888.44;;;8.66;61.01
13068;BME280;6600;51.362;6.686;2023-04-05T08:46:31;101882.31;;;8.65;60.31
13068;BME280;6600;51.362;6.686;2023-04-05T08:48:57;101885.41;;;8.77;60.03
13068;BME280;6600;51.362;6.686;2023-04-05T08:51:24;101876.13;;;8.65;59.25
13068;BME280;6600;51.362;6.686;2023-04-05T08:53:51;101883.88;;;8.82;59.76
13068;BME280;6600;51.362;6.686;2023-04-05T08:56:24;101887.09;;;9.00;59.14
13068;BME280;6600;51.362;6.686;2023-04-05T09:01:24;101873.97;;;8.91;57.39
13068;BME280;6600;51.362;6.686;2023-04-05T09:03:52;101881.00;;;8.84;59.49
13068;BME280;6600;51.362;6.686;2023-04-05T09:06:18;101871.13;;;9.15;58.48
13068;BME280;6600;51.362;6.686;2023-04-05T09:08:45;101874.69;;;9.53;59.49
13068;BME280;6600;51.362;6.686;2023-04-05T09:11:11;101871.75;;;9.62;59.23
13068;BME280;6600;51.362;6.686;2023-04-05T09:13:36;101872.78;;;9.76;57.92
13068;BME280;6600;51.362;6.686;2023-04-05T09:16:02;101867.75;;;9.96;57.79
13068;BME280;6600;51.362;6.686;2023-04-05T09:18:28;101872.41;;;9.79;56.62
13068;BME280;6600;51.362;6.686;2023-04-05T09:21:01;101857.19;;;9.80;57.44
13068;BME280;6600;51.362;6.686;2023-04-05T09:23:27;101865.06;;;9.81;57.43
13068;BME280;6600;51.362;6.686;2023-04-05T09:25:53;101866.28;;;9.56;57.46
13068;BME280;6600;51.362;6.686;2023-04-05T09:28:18;101855.78;;;9.54;58.67
13068;BME280;6600;51.362;6.686;2023-04-05T09:30:46;101863.47;;;9.87;58.77
13068;BME280;6600;51.362;6.686;2023-04-05T09:33:15;101859.88;;;9.80;58.25
13068;BME280;6600;51.362;6.686;2023-04-05T09:35:43;101862.78;;;9.93;58.26
13068;BME280;6600;51.362;6.686;2023-04-05T09:38:08;101852.63;;;10.03;57.52
13068;BME280;6600;51.362;6.686;2023-04-05T09:43:06;101856.31;;;10.31;58.30
13068;BME280;6600;51.362;6.686;2023-04-05T09:45:38;101854.13;;;10.20;57.09
13068;BME280;6600;51.362;6.686;2023-04-05T09:48:04;101863.03;;;10.12;58.03
13068;BME280;6600;51.362;6.686;2023-04-05T09:50:29;101863.84;;;9.84;57.12
13068;BME280;6600;51.362;6.686;2023-04-05T09:53:06;101866.31;;;9.71;57.33
13068;BME280;6600;51.362;6.686;2023-04-05T09:55:34;101863.09;;;9.90;57.54
13068;BME280;6600;51.362;6.686;2023-04-05T09:58:00;101862.78;;;10.22;56.91
13068;BME280;6600;51.362;6.686;2023-04-05T10:00:26;101852.84;;;10.31;55.22
13068;BME280;6600;51.362;6.686;2023-04-05T10:02:54;101854.38;;;10.76;58.69
13068;BME280;6600;51.362;6.686;2023-04-05T10:05:23;101847.16;;;10.91;55.55
13068;BME280;6600;51.362;6.686;2023-04-05T10:07:49;101855.59;;;10.73;52.77
13068;BME280;6600;51.362;6.686;2023-04-05T10:10:14;101848.69;;;10.79;53.03
13068;BME280;6600;51.362;6.686;2023-04-05T10:12:40;101848.81;;;10.92;50.21
13068;BME280;6600;51.362;6.686;2023-04-05T10:15:10;101845.63;;;11.03;51.88
13068;BME280;6600;51.362;6.686;2023-04-05T10:20:22;101829.78;;;10.87;52.09
13068;BME280;6600;51.362;6.686;2023-04-05T10:23:04;101835.91;;;10.81;50.54
13068;BME280;6600;51.362;6.686;2023-04-05T10:28:33;101834.00;;;10.96;50.74
13068;BME280;6600;51.362;6.686;2023-04-05T10:33:52;101823.78;;;11.06;49.90
13068;BME280;6600;51.362;6.686;2023-04-05T10:36:38;101826.78;;;11.18;49.48
13068;BME280;6600;51.362;6.686;2023-04-05T10:39:16;101829.25;;;11.40;49.98
13068;BME280;6600;51.362;6.686;2023-04-05T10:41:46;101826.78;;;11.66;50.06
13068;BME280;6600;51.362;6.686;2023-04-05T10:44:13;101821.13;;;11.83;48.55
13068;BME280;6600;51.362;6.686;2023-04-05T10:46:40;101819.53;;;11.39;45.42
13068;BME280;6600;51.362;6.686;2023-04-05T10:51:56;101817.38;;;11.77;46.68
13068;BME280;6600;51.362;6.686;2023-04-05T10:54:21;101814.38;;;11.65;46.23
13068;BME280;6600;51.362;6.686;2023-04-05T10:56:48;101812.88;;;11.84;46.69
13068;BME280;6600;51.362;6.686;2023-04-05T10:59:14;101815.06;;;12.02;45.75
13068;BME280;6600;51.362;6.686;2023-04-05T11:01:41;101816.63;;;11.90;44.80
13068;BME280;6600;51.362;6.686;2023-04-05T11:04:14;101811.19;;;11.77;44.91
13068;BME280;6600;51.362;6.686;2023-04-05T11:06:40;101806.75;;;11.41;43.15
13068;BME280;6600;51.362;6.686;2023-04-05T11:09:11;101801.81;;;11.45;44.75
13068;BME280;6600;51.362;6.686;2023-04-05T11:11:50;101805.22;;;11.53;44.83
13068;BME280;6600;51.362;6.686;2023-04-05T11:16:54;101791.44;;;11.91;45.19
13068;BME280;6600;51.362;6.686;2023-04-05T11:22:08;101786.94;;;11.98;44.10
13068;BME280;6600;51.362;6.686;2023-04-05T11:27:31;101790.16;;;12.28;44.23
13068;BME280;6600;51.362;6.686;2023-04-05T11:29:59;101784.38;;;12.24;43.20
13068;BME280;6600;51.362;6.686;2023-04-05T11:32:45;101773.50;;;12.45;44.88
13068;BME280;6600;51.362;6.686;2023-04-05T11:35:17;101783.47;;;12.51;43.32
13068;BME280;6600;51.362;6.686;2023-04-05T11:42:58;101776.38;;;12.37;45.03
13068;BME280;6600;51.362;6.686;2023-04-05T11:45:24;101777.66;;;12.48;45.23
13068;BME280;6600;51.362;6.686;2023-04-05T11:47:49;101774.34;;;12.52;44.09
13068;BME280;6600;51.362;6.686;2023-04-05T11:50:15;101773.75;;;12.63;44.34
13068;BME280;6600;51.362;6.686;2023-04-05T11:52:40;101769.09;;;12.31;43.14
13068;BME280;6600;51.362;6.686;2023-04-05T11:55:06;101768.28;;;11.90;43.33
13068;BME280;6600;51.362;6.686;2023-04-05T11:57:31;101764.31;;;12.20;44.73
13068;BME280;6600;51.362;6.686;2023-04-05T11:59:57;101764.41;;;12.46;46.28
13068;BME280;6600;51.362;6.686;2023-04-05T12:02:22;101754.50;;;12.53;45.05
13068;BME280;6600;51.362;6.686;2023-04-05T12:04:57;101754.50;;;12.53;44.73
13068;BME280;6600;51.362;6.686;2023-04-05T12:07:25;101756.19;;;12.68;45.42
13068;BME280;6600;51.362;6.686;2023-04-05T12:10:18;101748.56;;;12.78;44.53
13068;BME280;6600;51.362;6.686;2023-04-05T12:12:45;101742.88;;;12.33;45.12
13068;BME280;6600;51.362;6.686;2023-04-05T12:15:13;101738.75;;;12.37;44.14
13068;BME280;6600;51.362;6.686;2023-04-05T12:17:47;101732.06;;;12.20;44.51
13068;BME280;6600;51.362;6.686;2023-04-05T12:20:21;101732.97;;;12.40;44.20
13068;BME280;6600;51.362;6.686;2023-04-05T12:22:49;101730.50;;;12.52;43.96
13068;BME280;6600;51.362;6.686;2023-04-05T12:25:16;101726.78;;;12.53;44.32
13068;BME280;6600;51.362;6.686;2023-04-05T12:27:42;101727.59;;;12.40;43.75
13068;BME280;6600;51.362;6.686;2023-04-05T12:30:16;101729.22;;;12.41;44.76
13068;BME280;6600;51.362;6.686;2023-04-05T12:32:53;101720.56;;;12.39;44.20
13068;BME280;6600;51.362;6.686;2023-04-05T12:35:27;101722.44;;;12.58;44.19
13068;BME280;6600;51.362;6.686;2023-04-05T12:37:57;101722.66;;;12.50;43.92
13068;BME280;6600;51.362;6.686;2023-04-05T12:40:23;101715.44;;;12.64;44.85
13068;BME280;6600;51.362;6.686;2023-04-05T12:42:50;101713.78;;;12.83;44.78
13068;BME280;6600;51.362;6.686;2023-04-05T12:45:16;101711.50;;;12.73;43.94
13068;BME280;6600;51.362;6.686;2023-04-05T12:47:56;101705.50;;;12.64;43.46
13068;BME280;6600;51.362;6.686;2023-04-05T12:50:27;101700.56;;;12.75;44.35
13068;BME280;6600;51.362;6.686;2023-04-05T12:52:57;101695.38;;;12.73;42.54
13068;BME280;6600;51.362;6.686;2023-04-05T12:55:24;101697.03;;;12.54;42.93
13068;BME280;6600;51.362;6.686;2023-04-05T12:57:55;101691.66;;;12.68;44.24
13068;BME280;6600;51.362;6.686;2023-04-05T13:00:23;101679.22;;;12.66;43.54
13068;BME280;6600;51.362;6.686;2023-04-05T13:02:51;101688.13;;;12.60;43.71
13068;BME280;6600;51.362;6.686;2023-04-05T13:07:46;101675.94;;;12.71;44.31
13068;BME280;6600;51.362;6.686;2023-04-05T13:10:11;101679.22;;;12.53;43.63
13068;BME280;6600;51.362;6.686;2023-04-05T13:12:37;101666.97;;;12.38;44.50
13068;BME280;6600;51.362;6.686;2023-04-05T13:15:02;101674.84;;;12.39;43.84
13068;BME280;6600;51.362;6.686;2023-04-05T13:17:28;101666.16;;;12.31;43.43
13068;BME280;6600;51.362;6.686;2023-04-05T13:19:53;101667.63;;;12.46;43.75
13068;BME280;6600;51.362;6.686;2023-04-05T13:22:19;101680.41;;;12.38;43.23
13068;BME280;6600;51.362;6.686;2023-04-05T13:24:44;101660.59;;;12.58;44.05
13068;BME280;6600;51.362;6.686;2023-04-05T13:27:09;101665.19;;;12.58;41.82
13068;BME280;6600;51.362;6.686;2023-04-05T13:29:35;101661.84;;;12.62;41.79
13068;BME280;6600;51.362;6.686;2023-04-05T13:32:00;101647.78;;;12.67;43.83
13068;BME280;6600;51.362;6.686;2023-04-05T13:34:25;101652.34;;;12.80;44.19
13068;BME280;6600;51.362;6.686;2023-04-05T13:36:51;101646.56;;;12.96;43.16
13068;BME280;6600;51.362;6.686;2023-04-05T13:39:16;101636.63;;;13.03;44.81
13068;BME280;6600;51.362;6.686;2023-04-05T13:41:42;101638.25;;;13.17;44.77
13068;BME280;6600;51.362;6.686;2023-04-05T13:44:07;101643.63;;;13.17;43.12